createdAt,value
2019-01-03T00:02:11.125Z,-2.46
2019-01-03T00:05:04.846Z,-2.89
2019-01-03T00:07:54.247Z,-2.70
2019-01-03T00:10:45.325Z,-2.65
2019-01-03T00:13:34.944Z,-2.64
2019-01-03T00:16:40.922Z,-2.52
2019-01-03T00:19:29.508Z,-2.57
2019-01-03T00:22:18.699Z,-2.58
2019-01-03T00:25:18.182Z,-2.44
2019-01-03T00:28:20.703Z,-2.50
2019-01-03T00:31:10.111Z,-2.63
2019-01-03T00:34:10.152Z,-2.58
2019-01-03T00:37:09.805Z,-2.56
2019-01-03T00:39:48.034Z,-2.59
2019-01-03T00:42:47.900Z,-2.70
2019-01-03T00:45:37.045Z,-2.69
2019-01-03T00:48:26.471Z,-2.80
2019-01-03T00:51:15.748Z,-2.90
2019-01-03T00:54:06.418Z,-3.01
2019-01-03T00:57:12.286Z,-2.83
2019-01-03T01:00:01.392Z,-2.90
2019-01-03T01:03:00.282Z,-2.85
2019-01-03T01:05:50.953Z,-2.90
2019-01-03T01:08:53.782Z,-3.05
2019-01-03T01:11:56.711Z,-3.12
2019-01-03T01:14:52.550Z,-3.26
2019-01-03T01:17:44.173Z,-3.31
2019-01-03T01:20:32.670Z,-3.39
2019-01-03T01:23:21.798Z,-3.45
2019-01-03T01:26:12.489Z,-3.58
2019-01-03T01:29:01.792Z,-3.76
2019-01-03T01:31:58.318Z,-3.82
2019-01-03T01:34:49.422Z,-3.86
2019-01-03T01:37:42.559Z,-3.99
2019-01-03T01:40:24.316Z,-4.02
2019-01-03T01:43:25.290Z,-4.16
2019-01-03T01:46:16.209Z,-4.15
2019-01-03T01:49:13.026Z,-4.13
2019-01-03T01:52:08.271Z,-4.14
2019-01-03T01:55:17.238Z,-4.22
2019-01-03T01:58:06.650Z,-4.19
2019-01-03T02:01:01.391Z,-4.28
2019-01-03T02:03:56.058Z,-4.41
2019-01-03T02:06:45.187Z,-4.46
2019-01-03T02:09:39.085Z,-4.57
2019-01-03T02:12:36.022Z,-4.52
2019-01-03T02:15:42.129Z,-4.64
2019-01-03T02:18:31.238Z,-4.60
2019-01-03T02:21:35.972Z,-4.64
2019-01-03T02:24:22.122Z,-4.62
2019-01-03T02:27:12.871Z,-4.53
2019-01-03T02:30:04.963Z,-4.55
2019-01-03T02:33:02.495Z,-4.57
2019-01-03T02:36:02.303Z,-4.58
2019-01-03T02:38:55.980Z,-4.78
2019-01-03T02:41:48.845Z,-4.81
2019-01-03T02:44:49.067Z,-4.83
2019-01-03T02:47:38.192Z,-4.74
2019-01-03T02:50:21.132Z,-4.69
2019-01-03T02:53:10.908Z,-4.59
2019-01-03T02:56:00.244Z,-4.67
2019-01-03T02:58:46.243Z,-4.68
2019-01-03T03:01:36.979Z,-4.82
2019-01-03T03:04:26.447Z,-4.88
2019-01-03T03:07:26.274Z,-4.89
2019-01-03T03:10:26.040Z,-5.04
2019-01-03T03:13:15.866Z,-5.00
2019-01-03T03:16:09.644Z,-5.03
2019-01-03T03:18:59.938Z,-5.06
2019-01-03T03:21:42.582Z,-5.16
2019-01-03T03:24:39.455Z,-5.08
2019-01-03T03:27:28.930Z,-5.14
2019-01-03T03:30:22.418Z,-5.19
2019-01-03T03:33:09.357Z,-5.20
2019-01-03T03:36:01.560Z,-5.24
2019-01-03T03:39:01.157Z,-5.11
2019-01-03T03:41:52.302Z,-5.21
2019-01-03T03:44:57.955Z,-5.25
2019-01-03T03:47:47.373Z,-5.21
2019-01-03T03:50:41.463Z,-5.22
2019-01-03T03:53:32.131Z,-5.28
2019-01-03T03:56:31.563Z,-5.24
2019-01-03T03:59:22.238Z,-5.19
2019-01-03T04:02:22.229Z,-5.27
2019-01-03T04:05:11.590Z,-5.29
2019-01-03T04:08:01.649Z,-5.42
2019-01-03T04:10:50.872Z,-5.57
2019-01-03T04:13:49.884Z,-5.63
2019-01-03T04:16:43.376Z,-5.70
2019-01-03T04:19:43.358Z,-5.73
2019-01-03T04:22:34.358Z,-5.73
2019-01-03T04:25:30.737Z,-5.67
2019-01-03T04:28:19.905Z,-5.78
2019-01-03T04:31:09.398Z,-5.75
2019-01-03T04:34:09.201Z,-5.77
2019-01-03T04:37:00.752Z,-5.87
2019-01-03T04:39:58.685Z,-5.81
2019-01-03T04:42:48.015Z,-5.79
2019-01-03T04:45:32.470Z,-5.73
2019-01-03T04:48:21.794Z,-5.77
2019-01-03T04:51:10.951Z,-5.70
2019-01-03T04:54:00.538Z,-5.80
2019-01-03T04:56:57.303Z,-5.72
2019-01-03T04:59:56.868Z,-5.77
2019-01-03T05:02:45.963Z,-5.97
2019-01-03T05:05:51.336Z,-5.99
2019-01-03T05:08:53.191Z,-6.01
2019-01-03T05:11:58.912Z,-6.02
2019-01-03T05:14:52.462Z,-6.01
2019-01-03T05:17:41.565Z,-6.04
2019-01-03T05:20:41.406Z,-6.01
2019-01-03T05:23:31.006Z,-6.02
2019-01-03T05:26:20.662Z,-6.16
2019-01-03T05:29:09.721Z,-6.16
2019-01-03T05:31:59.500Z,-6.17
2019-01-03T05:34:48.773Z,-6.22
2019-01-03T05:37:37.972Z,-6.35
2019-01-03T05:40:35.957Z,-6.39
2019-01-03T05:43:34.739Z,-6.31
2019-01-03T05:46:33.061Z,-6.31
2019-01-03T05:49:32.625Z,-6.27
2019-01-03T05:52:38.541Z,-6.29
2019-01-03T05:55:27.583Z,-6.32
2019-01-03T05:58:15.265Z,-6.32
2019-01-03T06:01:04.865Z,-6.34
2019-01-03T06:03:58.393Z,-6.30
2019-01-03T06:06:58.108Z,-6.30
2019-01-03T06:09:54.831Z,-6.32
2019-01-03T06:12:41.796Z,-6.35
2019-01-03T06:15:35.698Z,-6.40
2019-01-03T06:18:27.027Z,-6.43
2019-01-03T06:21:32.756Z,-6.42
2019-01-03T06:24:21.940Z,-6.49
2019-01-03T06:27:16.171Z,-6.48
2019-01-03T06:30:05.520Z,-6.52
2019-01-03T06:32:53.040Z,-6.49
2019-01-03T06:35:57.444Z,-6.47
2019-01-03T06:38:43.698Z,-6.42
2019-01-03T06:41:34.437Z,-6.44
2019-01-03T06:44:34.584Z,-6.40
2019-01-03T06:47:23.782Z,-6.39
2019-01-03T06:50:13.113Z,-6.51
2019-01-03T06:53:02.193Z,-6.63
2019-01-03T06:56:08.143Z,-6.59
2019-01-03T06:58:57.571Z,-6.62
2019-01-03T07:01:46.940Z,-6.59
2019-01-03T07:04:40.703Z,-6.55
2019-01-03T07:07:29.505Z,-6.53
2019-01-03T07:10:18.848Z,-6.67
2019-01-03T07:13:12.707Z,-6.57
2019-01-03T07:16:06.704Z,-6.55
2019-01-03T07:19:00.489Z,-6.52
2019-01-03T07:21:49.882Z,-6.52
2019-01-03T07:24:39.111Z,-6.52
2019-01-03T07:27:29.720Z,-6.42
2019-01-03T07:30:29.678Z,-6.44
2019-01-03T07:33:18.873Z,-6.45
2019-01-03T07:36:12.523Z,-6.48
2019-01-03T07:39:03.278Z,-6.49
2019-01-03T07:42:00.127Z,-6.49
2019-01-03T07:44:54.093Z,-6.46
2019-01-03T07:47:49.803Z,-6.49
2019-01-03T07:50:41.044Z,-6.55
2019-01-03T07:53:25.001Z,-6.54
2019-01-03T07:56:15.504Z,-6.53
2019-01-03T07:59:06.183Z,-6.52
2019-01-03T08:01:56.918Z,-6.57
2019-01-03T08:05:02.752Z,-6.53
2019-01-03T08:07:52.866Z,-6.50
2019-01-03T08:10:43.549Z,-6.49
2019-01-03T08:13:31.933Z,-6.47
2019-01-03T08:16:21.169Z,-6.44
2019-01-03T08:19:05.957Z,-6.45
2019-01-03T08:22:09.014Z,-6.44
2019-01-03T08:24:58.239Z,-6.42
2019-01-03T08:27:51.752Z,-6.47
2019-01-03T08:30:39.297Z,-6.43
2019-01-03T08:33:48.164Z,-6.33
2019-01-03T08:36:37.578Z,-6.30
2019-01-03T08:39:27.680Z,-6.23
2019-01-03T08:42:17.788Z,-6.23
2019-01-03T08:45:13.992Z,-6.22
2019-01-03T08:48:22.450Z,-6.23
2019-01-03T08:51:32.839Z,-6.10
2019-01-03T08:54:21.969Z,-6.02
2019-01-03T08:57:05.352Z,-6.12
2019-01-03T08:59:54.836Z,-6.09
2019-01-03T09:02:48.662Z,-6.07
2019-01-03T09:05:51.784Z,-6.00
2019-01-03T09:08:41.065Z,-5.88
2019-01-03T09:11:26.126Z,-5.81
2019-01-03T09:14:31.924Z,-5.76
2019-01-03T09:17:31.731Z,-5.67
2019-01-03T09:20:26.531Z,-5.59
2019-01-03T09:23:15.643Z,-5.57
2019-01-03T09:26:04.701Z,-5.46
2019-01-03T09:28:58.282Z,-5.33
2019-01-03T09:31:47.678Z,-5.10
2019-01-03T09:34:44.326Z,-4.96
2019-01-03T09:37:35.077Z,-4.85
2019-01-03T09:40:41.628Z,-4.68
2019-01-03T09:43:44.226Z,-4.57
2019-01-03T09:46:15.996Z,-4.47
2019-01-03T09:48:47.831Z,-4.37
2019-01-03T09:51:19.702Z,-4.30
2019-01-03T09:53:51.464Z,-4.30
2019-01-03T09:56:23.333Z,-4.29
2019-01-03T09:58:55.162Z,-4.20
2019-01-03T10:01:27.086Z,-4.13
2019-01-03T10:03:58.848Z,-4.04
2019-01-03T10:06:30.695Z,-3.95
2019-01-03T10:09:02.821Z,-3.89
2019-01-03T10:11:34.847Z,-3.91
2019-01-03T10:14:06.877Z,-3.87
2019-01-03T10:16:38.807Z,-3.67
2019-01-03T10:19:11.550Z,-3.77
2019-01-03T10:21:43.650Z,-3.69
2019-01-03T10:24:15.491Z,-3.70
2019-01-03T10:26:47.372Z,-3.64
2019-01-03T10:29:19.295Z,-3.57
2019-01-03T10:31:51.139Z,-3.54
2019-01-03T10:34:23.226Z,-3.38
2019-01-03T10:36:55.057Z,-3.40
2019-01-03T10:39:26.894Z,-3.34
2019-01-03T10:41:58.901Z,-3.20
2019-01-03T10:44:31.919Z,-3.13
2019-01-03T10:47:04.037Z,-3.02
2019-01-03T10:49:37.046Z,-2.96
2019-01-03T10:52:09.102Z,-2.92
2019-01-03T10:54:41.146Z,-2.80
2019-01-03T10:57:15.151Z,-2.65
2019-01-03T10:59:48.394Z,-2.58
2019-01-03T11:02:21.720Z,-2.54
2019-01-03T11:04:53.666Z,-2.53
2019-01-03T11:07:25.609Z,-2.53
2019-01-03T11:09:57.361Z,-2.57
2019-01-03T11:12:37.235Z,-2.47
2019-01-03T11:15:09.321Z,-2.37
2019-01-03T11:17:41.086Z,-2.31
2019-01-03T11:20:13.538Z,-2.34
2019-01-03T11:22:45.667Z,-2.28
2019-01-03T11:25:17.405Z,-2.19
2019-01-03T11:27:49.164Z,-2.17
2019-01-03T11:30:21.040Z,-2.13
2019-01-03T11:32:53.187Z,-2.09
2019-01-03T11:35:25.201Z,-2.08
2019-01-03T11:37:57.271Z,-2.08
2019-01-03T11:40:29.035Z,-2.10
2019-01-03T11:43:00.814Z,-2.08
2019-01-03T11:45:32.912Z,-2.04
2019-01-03T11:48:04.687Z,-1.93
2019-01-03T11:50:36.691Z,-1.89
2019-01-03T11:53:08.744Z,-1.99
2019-01-03T11:55:40.517Z,-1.97
2019-01-03T11:58:12.446Z,-1.88
2019-01-03T12:00:44.272Z,-1.94
2019-01-03T12:03:16.313Z,-2.01
2019-01-03T12:05:48.423Z,-2.01
2019-01-03T12:08:20.317Z,-1.96
2019-01-03T12:10:52.077Z,-1.99
2019-01-03T12:13:23.848Z,-2.05
2019-01-03T12:15:55.618Z,-2.07
2019-01-03T12:18:27.461Z,-2.13
2019-01-03T12:20:59.300Z,-2.12
2019-01-03T12:23:31.073Z,-2.12
2019-01-03T12:26:02.902Z,-2.27
2019-01-03T12:28:34.686Z,-2.13
2019-01-03T12:31:06.479Z,-2.15
2019-01-03T12:33:38.597Z,-2.16
2019-01-03T12:36:11.804Z,-2.04
2019-01-03T12:38:43.650Z,-1.96
2019-01-03T12:41:15.577Z,-1.98
2019-01-03T12:43:47.355Z,-1.99
2019-01-03T12:46:19.137Z,-1.89
2019-01-03T12:48:50.899Z,-1.86
2019-01-03T12:51:22.644Z,-1.93
2019-01-03T12:53:54.553Z,-1.91
2019-01-03T12:56:26.558Z,-1.89
2019-01-03T12:58:58.317Z,-1.95
2019-01-03T13:01:30.148Z,-2.05
2019-01-03T13:04:01.962Z,-1.84
2019-01-03T13:06:33.805Z,-1.82
2019-01-03T13:09:09.653Z,-1.76
2019-01-03T13:11:41.603Z,-1.77
2019-01-03T13:14:13.620Z,-1.80
2019-01-03T13:16:45.794Z,-1.85
2019-01-03T13:19:18.590Z,-1.84
2019-01-03T13:21:50.358Z,-1.83
2019-01-03T13:24:22.305Z,-1.88
2019-01-03T13:26:54.074Z,-1.87
2019-01-03T13:29:25.987Z,-1.91
2019-01-03T13:31:57.745Z,-1.80
2019-01-03T13:34:29.494Z,-1.85
2019-01-03T13:37:01.266Z,-1.82
2019-01-03T13:39:33.356Z,-1.85
2019-01-03T13:42:05.247Z,-1.73
2019-01-03T13:44:37.026Z,-1.74
2019-01-03T13:47:08.853Z,-1.76
2019-01-03T13:49:40.621Z,-1.83
2019-01-03T13:52:12.372Z,-1.78
2019-01-03T13:54:44.330Z,-1.81
2019-01-03T13:57:16.156Z,-1.82
2019-01-03T13:59:47.998Z,-1.95
2019-01-03T14:02:19.798Z,-2.06
2019-01-03T14:04:51.838Z,-1.97
2019-01-03T14:07:23.600Z,-1.83
2019-01-03T14:09:55.769Z,-1.79
2019-01-03T14:12:30.919Z,-1.84
2019-01-03T14:15:02.838Z,-1.90
2019-01-03T14:17:34.602Z,-1.84
2019-01-03T14:20:09.454Z,-1.88
2019-01-03T14:22:41.310Z,-1.82
2019-01-03T14:25:13.325Z,-1.87
2019-01-03T14:27:45.417Z,-1.81
2019-01-03T14:30:17.178Z,-1.85
2019-01-03T14:32:48.931Z,-1.84
2019-01-03T14:35:20.824Z,-1.85
2019-01-03T14:37:52.982Z,-1.85
2019-01-03T14:40:24.902Z,-1.86
2019-01-03T14:42:56.655Z,-1.91
2019-01-03T14:45:28.507Z,-1.94
2019-01-03T14:48:00.267Z,-1.88
2019-01-03T14:50:32.191Z,-1.82
2019-01-03T14:53:04.031Z,-1.81
2019-01-03T14:55:36.036Z,-1.75
2019-01-03T14:58:07.796Z,-1.93
2019-01-03T15:00:39.650Z,-1.90
2019-01-03T15:03:11.410Z,-1.78
2019-01-03T15:05:43.176Z,-1.74
2019-01-03T15:08:15.345Z,-1.71
2019-01-03T15:10:47.112Z,-1.71
2019-01-03T15:13:18.890Z,-1.85
2019-01-03T15:15:50.657Z,-1.82
2019-01-03T15:18:22.425Z,-1.83
2019-01-03T15:20:54.266Z,-1.84
2019-01-03T15:23:26.090Z,-1.90
2019-01-03T15:25:57.864Z,-2.03
2019-01-03T15:28:29.634Z,-2.06
2019-01-03T15:31:01.408Z,-1.96
2019-01-03T15:33:33.324Z,-1.81
2019-01-03T15:36:05.257Z,-2.08
2019-01-03T15:38:37.027Z,-2.12
2019-01-03T15:41:08.884Z,-2.10
2019-01-03T15:43:40.676Z,-2.08
2019-01-03T15:46:12.464Z,-2.02
2019-01-03T15:48:44.224Z,-1.76
2019-01-03T15:51:16.123Z,-1.73
2019-01-03T15:53:47.921Z,-1.77
2019-01-03T15:56:19.975Z,-1.94
2019-01-03T15:58:51.734Z,-1.86
2019-01-03T16:01:23.491Z,-1.83
2019-01-03T16:03:55.395Z,-1.85
2019-01-03T16:06:27.170Z,-1.85
2019-01-03T16:08:59.000Z,-1.88
2019-01-03T16:11:30.841Z,-1.89
2019-01-03T16:14:02.604Z,-1.90
2019-01-03T16:16:34.380Z,-1.98
2019-01-03T16:19:06.241Z,-1.89
2019-01-03T16:21:38.360Z,-1.95
2019-01-03T16:24:10.200Z,-1.96
2019-01-03T16:26:41.975Z,-1.96
2019-01-03T16:29:13.737Z,-1.99
2019-01-03T16:31:45.586Z,-1.99
2019-01-03T16:34:17.383Z,-2.01
2019-01-03T16:36:49.557Z,-2.18
2019-01-03T16:39:21.351Z,-1.99
2019-01-03T16:41:53.125Z,-1.97
2019-01-03T16:44:24.904Z,-2.03
2019-01-03T16:46:57.017Z,-2.08
2019-01-03T16:49:28.963Z,-1.98
2019-01-03T16:52:00.820Z,-1.91
2019-01-03T16:54:32.739Z,-1.91
2019-01-03T16:57:04.595Z,-2.02
2019-01-03T16:59:36.437Z,-1.87
2019-01-03T17:02:08.284Z,-1.94
2019-01-03T17:04:40.052Z,-1.97
2019-01-03T17:07:12.181Z,-1.91
2019-01-03T17:09:44.018Z,-1.93
2019-01-03T17:12:15.875Z,-1.98
2019-01-03T17:14:47.652Z,-1.82
2019-01-03T17:17:19.419Z,-1.90
2019-01-03T17:19:51.264Z,-1.99
2019-01-03T17:22:23.108Z,-1.88
2019-01-03T17:24:54.945Z,-2.02
2019-01-03T17:27:26.732Z,-2.02
2019-01-03T17:29:58.496Z,-2.04
2019-01-03T17:32:30.354Z,-1.84
2019-01-03T17:35:02.382Z,-1.73
2019-01-03T17:37:34.427Z,-1.85
2019-01-03T17:40:08.221Z,-1.79
2019-01-03T17:42:40.410Z,-1.82
2019-01-03T17:45:12.364Z,-1.81
2019-01-03T17:47:44.206Z,-1.81
2019-01-03T17:50:17.088Z,-1.82
2019-01-03T17:52:48.938Z,-1.84
2019-01-03T17:55:20.781Z,-1.86
2019-01-03T17:57:52.621Z,-2.01
2019-01-03T18:00:24.730Z,-1.89
2019-01-03T18:02:56.592Z,-1.93
2019-01-03T18:05:28.363Z,-1.90
2019-01-03T18:08:00.206Z,-1.90
2019-01-03T18:10:32.059Z,-1.88
2019-01-03T18:13:04.293Z,-1.86
2019-01-03T18:15:36.217Z,-1.90
2019-01-03T18:18:08.320Z,-1.86
2019-01-03T18:20:40.419Z,-1.89
2019-01-03T18:23:12.300Z,-2.05
2019-01-03T18:25:44.286Z,-1.86
2019-01-03T18:28:16.069Z,-1.82
2019-01-03T18:30:47.831Z,-1.89
2019-01-03T18:33:19.768Z,-1.99
2019-01-03T18:35:51.963Z,-2.10
2019-01-03T18:38:23.737Z,-2.20
2019-01-03T18:40:55.756Z,-2.27
2019-01-03T18:43:27.623Z,-2.41
2019-01-03T18:45:59.751Z,-2.36
2019-01-03T18:48:31.793Z,-2.30
2019-01-03T18:51:03.579Z,-2.21
2019-01-03T18:53:35.372Z,-2.23
2019-01-03T18:56:07.662Z,-2.20
2019-01-03T18:58:39.781Z,-2.25
2019-01-03T19:01:11.810Z,-2.16
2019-01-03T19:03:43.656Z,-2.17
2019-01-03T19:06:15.525Z,-2.34
2019-01-03T19:08:47.379Z,-2.36
2019-01-03T19:11:19.158Z,-2.24
2019-01-03T19:13:50.951Z,-2.24
2019-01-03T19:16:23.092Z,-2.40
2019-01-03T19:18:55.141Z,-2.54
2019-01-03T19:21:26.987Z,-2.66
2019-01-03T19:23:58.777Z,-2.74
2019-01-03T19:26:30.667Z,-2.88
2019-01-03T19:29:02.454Z,-2.61
2019-01-03T19:31:34.309Z,-2.50
2019-01-03T19:34:07.008Z,-2.59
2019-01-03T19:36:39.150Z,-2.62
2019-01-03T19:39:11.382Z,-2.73
2019-01-03T19:41:43.411Z,-2.75
2019-01-03T19:44:15.396Z,-2.82
2019-01-03T19:46:47.176Z,-2.96
2019-01-03T19:49:19.047Z,-2.88
2019-01-03T19:51:50.921Z,-2.90
2019-01-03T19:54:22.734Z,-2.82
2019-01-03T19:56:54.588Z,-3.08
2019-01-03T19:59:26.391Z,-2.91
2019-01-03T20:02:04.038Z,-3.01
2019-01-03T20:04:36.429Z,-2.98
2019-01-03T20:07:09.700Z,-2.94
2019-01-03T20:09:42.381Z,-3.09
2019-01-03T20:12:15.133Z,-3.14
2019-01-03T20:14:47.448Z,-3.05
2019-01-03T20:17:19.826Z,-3.00
2019-01-03T20:19:52.194Z,-2.85
2019-01-03T20:22:24.626Z,-2.90
2019-01-03T20:24:57.130Z,-2.72
2019-01-03T20:27:29.571Z,-2.76
2019-01-03T20:30:02.252Z,-2.78
2019-01-03T20:32:34.598Z,-2.82
2019-01-03T20:35:06.925Z,-2.94
2019-01-03T20:37:39.675Z,-2.70
2019-01-03T20:40:12.086Z,-2.70
2019-01-03T20:42:44.705Z,-2.53
2019-01-03T20:45:17.385Z,-2.58
2019-01-03T20:47:50.213Z,-2.48
2019-01-03T20:50:22.913Z,-2.55
2019-01-03T20:52:55.226Z,-2.52
2019-01-03T20:55:28.108Z,-2.56
2019-01-03T20:58:00.495Z,-2.48
2019-01-03T21:00:34.245Z,-2.46
2019-01-03T21:03:06.626Z,-2.62
2019-01-03T21:05:40.155Z,-2.56
2019-01-03T21:08:12.231Z,-2.52
2019-01-03T21:10:44.360Z,-2.45
2019-01-03T21:13:16.207Z,-2.47
2019-01-03T21:15:48.238Z,-2.62
2019-01-03T21:18:20.503Z,-2.62
2019-01-03T21:20:52.678Z,-2.68
2019-01-03T21:23:24.586Z,-2.61
2019-01-03T21:25:56.540Z,-2.39
2019-01-03T21:28:28.583Z,-2.37
2019-01-03T21:31:00.644Z,-2.36
2019-01-03T21:33:32.583Z,-2.36
2019-01-03T21:36:04.593Z,-2.37
2019-01-03T21:38:36.807Z,-2.50
2019-01-03T21:41:09.055Z,-2.53
2019-01-03T21:43:40.923Z,-2.47
2019-01-03T21:46:12.759Z,-2.54
2019-01-03T21:48:44.558Z,-2.53
2019-01-03T21:51:16.784Z,-2.52
2019-01-03T21:53:48.819Z,-2.55
2019-01-03T21:56:20.980Z,-2.62
2019-01-03T21:58:52.835Z,-2.67
2019-01-03T22:01:24.780Z,-2.55
2019-01-03T22:03:56.636Z,-2.44
2019-01-03T22:06:28.535Z,-2.55
2019-01-03T22:09:00.380Z,-2.43
2019-01-03T22:11:32.204Z,-2.40
2019-01-03T22:14:05.060Z,-2.37
2019-01-03T22:16:36.942Z,-2.25
2019-01-03T22:19:09.811Z,-2.21
2019-01-03T22:21:41.740Z,-2.46
2019-01-03T22:24:13.529Z,-2.46
2019-01-03T22:26:45.360Z,-2.22
2019-01-03T22:29:17.253Z,-2.26
2019-01-03T22:31:49.247Z,-2.22
2019-01-03T22:34:21.078Z,-2.15
2019-01-03T22:36:53.058Z,-2.32
2019-01-03T22:39:24.840Z,-2.20
2019-01-03T22:41:56.986Z,-2.29
2019-01-03T22:44:29.139Z,-2.26
2019-01-03T22:47:01.057Z,-2.30
2019-01-03T22:49:33.049Z,-2.23
2019-01-03T22:52:04.890Z,-2.23
2019-01-03T22:54:36.861Z,-2.22
2019-01-03T22:57:08.846Z,-2.20
2019-01-03T22:59:41.012Z,-2.18
2019-01-03T23:02:13.111Z,-2.27
2019-01-03T23:04:49.151Z,-2.22
2019-01-03T23:07:18.947Z,-2.12
2019-01-03T23:09:50.863Z,-2.13
2019-01-03T23:12:22.862Z,-2.22
2019-01-03T23:14:54.929Z,-2.08
2019-01-03T23:17:26.827Z,-2.09
2019-01-03T23:19:58.659Z,-2.07
2019-01-03T23:22:30.870Z,-2.15
2019-01-03T23:25:02.752Z,-2.05
2019-01-03T23:27:34.755Z,-2.06
2019-01-03T23:30:07.987Z,-2.09
2019-01-03T23:32:39.986Z,-1.98
2019-01-03T23:35:11.970Z,-2.04
2019-01-03T23:37:43.959Z,-1.97
2019-01-03T23:40:15.940Z,-1.99
2019-01-03T23:42:47.871Z,-2.01
2019-01-03T23:45:24.413Z,-1.98
2019-01-03T23:48:01.084Z,-2.15
2019-01-03T23:50:37.248Z,-2.07
2019-01-03T23:53:09.468Z,-2.18
2019-01-03T23:55:46.827Z,-2.05
2019-01-03T23:58:18.846Z,-2.15
